createdAt,value
2023-03-01T00:01:48.279Z,-0.40
2023-03-01T00:04:16.184Z,-0.40
2023-03-01T00:06:47.030Z,-0.40
2023-03-01T00:09:15.143Z,-0.40
2023-03-01T00:11:43.635Z,-0.40
2023-03-01T00:14:11.640Z,-0.40
2023-03-01T00:16:42.998Z,-0.40
2023-03-01T00:19:14.071Z,-0.40
2023-03-01T00:21:42.457Z,-0.40
2023-03-01T00:24:11.339Z,-0.40
2023-03-01T00:26:39.698Z,-0.40
2023-03-01T00:29:07.639Z,-0.40
2023-03-01T00:31:36.212Z,-0.40
2023-03-01T00:34:07.421Z,-0.40
2023-03-01T00:36:37.716Z,-0.40
2023-03-01T00:39:07.084Z,-0.30
2023-03-01T00:41:35.602Z,-0.30
2023-03-01T00:44:03.886Z,-0.40
2023-03-01T00:46:32.433Z,-0.40
2023-03-01T00:49:02.984Z,-0.30
2023-03-01T00:51:32.650Z,-0.40
2023-03-01T00:54:02.876Z,-0.40
2023-03-01T00:56:32.018Z,-0.30
2023-03-01T00:59:00.159Z,-0.30
2023-03-01T01:01:31.488Z,-0.30
2023-03-01T01:04:02.006Z,-0.30
2023-03-01T01:06:33.875Z,-0.30
2023-03-01T01:09:02.177Z,-0.30
2023-03-01T01:11:31.811Z,-0.30
2023-03-01T01:14:00.795Z,-0.30
2023-03-01T01:16:30.352Z,-0.30
2023-03-01T01:18:59.628Z,-0.30
2023-03-01T01:21:28.186Z,-0.30
2023-03-01T01:23:57.690Z,-0.30
2023-03-01T01:26:27.880Z,-0.30
2023-03-01T01:28:56.839Z,-0.30
2023-03-01T01:31:25.524Z,-0.30
2023-03-01T01:33:54.373Z,-0.30
2023-03-01T01:36:22.394Z,-0.30
2023-03-01T01:38:50.679Z,-0.30
2023-03-01T01:41:20.190Z,-0.20
2023-03-01T01:43:50.476Z,-0.30
2023-03-01T01:46:25.803Z,-0.30
2023-03-01T01:48:58.897Z,-0.30
2023-03-01T01:51:30.356Z,-0.30
2023-03-01T01:54:03.008Z,-0.30
2023-03-01T01:56:32.743Z,-0.30
2023-03-01T01:59:00.927Z,-0.30
2023-03-01T02:01:29.007Z,-0.30
2023-03-01T02:03:57.112Z,-0.30
2023-03-01T02:06:31.166Z,-0.30
2023-03-01T02:09:03.049Z,-0.30
2023-03-01T02:11:34.471Z,-0.30
2023-03-01T02:14:02.631Z,-0.30
2023-03-01T02:16:32.174Z,-0.30
2023-03-01T02:19:00.921Z,-0.30
2023-03-01T02:21:40.416Z,-0.30
2023-03-01T02:24:21.044Z,-0.30
2023-03-01T02:26:54.147Z,-0.30
2023-03-01T02:29:23.704Z,-0.30
2023-03-01T02:31:52.307Z,-0.30
2023-03-01T02:34:23.205Z,-0.30
2023-03-01T02:36:54.563Z,-0.30
2023-03-01T02:39:28.475Z,-0.30
2023-03-01T02:41:58.322Z,-0.30
2023-03-01T02:44:27.734Z,-0.30
2023-03-01T02:46:58.636Z,-0.30
2023-03-01T02:49:29.967Z,-0.30
2023-03-01T02:52:22.446Z,-0.30
2023-03-01T02:54:54.861Z,-0.30
2023-03-01T02:57:23.911Z,-0.30
2023-03-01T02:59:54.675Z,-0.30
2023-03-01T03:02:36.940Z,-0.30
2023-03-01T03:05:09.309Z,-0.30
2023-03-01T03:07:38.628Z,-0.30
2023-03-01T03:10:09.596Z,-0.30
2023-03-01T03:12:37.473Z,-0.30
2023-03-01T03:15:09.855Z,-0.30
2023-03-01T03:17:38.086Z,-0.30
2023-03-01T03:20:11.837Z,-0.30
2023-03-01T03:22:40.801Z,-0.30
2023-03-01T03:25:11.431Z,-0.30
2023-03-01T03:27:39.609Z,-0.30
2023-03-01T03:30:12.923Z,-0.30
2023-03-01T03:32:40.922Z,-0.30
2023-03-01T03:35:10.959Z,-0.30
2023-03-01T03:37:57.181Z,-0.30
2023-03-01T03:40:25.644Z,-0.30
2023-03-01T03:42:53.542Z,-0.30
2023-03-01T03:45:23.112Z,-0.40
2023-03-01T03:47:51.054Z,-0.30
2023-03-01T03:50:20.663Z,-0.40
2023-03-01T03:52:48.678Z,-0.40
2023-03-01T03:55:20.333Z,-0.40
2023-03-01T03:57:52.364Z,-0.40
2023-03-01T04:00:24.804Z,-0.40
2023-03-01T04:02:57.516Z,-0.40
2023-03-01T04:05:25.853Z,-0.40
2023-03-01T04:08:02.050Z,-0.40
2023-03-01T04:10:32.358Z,-0.40
2023-03-01T04:13:00.456Z,-0.40
2023-03-01T04:15:30.098Z,-0.40
2023-03-01T04:18:00.015Z,-0.50
2023-03-01T04:20:30.525Z,-0.50
2023-03-01T04:23:11.469Z,-0.50
2023-03-01T04:25:40.934Z,-0.50
2023-03-01T04:28:09.142Z,-0.50
2023-03-01T04:30:39.767Z,-0.50
2023-03-01T04:33:08.943Z,-0.60
2023-03-01T04:35:38.626Z,-0.60
2023-03-01T04:38:07.356Z,-0.60
2023-03-01T04:40:35.974Z,-0.60
2023-03-01T04:43:04.145Z,-0.60
2023-03-01T04:45:33.502Z,-0.60
2023-03-01T04:48:02.931Z,-0.60
2023-03-01T04:50:30.973Z,-0.60
2023-03-01T04:53:00.171Z,-0.60
2023-03-01T04:55:28.515Z,-0.60
2023-03-01T04:57:56.708Z,-0.60
2023-03-01T05:00:25.264Z,-0.60
2023-03-01T05:02:55.904Z,-0.60
2023-03-01T05:05:28.247Z,-0.60
2023-03-01T05:07:57.865Z,-0.60
2023-03-01T05:10:26.617Z,-0.60
2023-03-01T05:12:54.638Z,-0.60
2023-03-01T05:15:26.483Z,-0.60
2023-03-01T05:17:55.179Z,-0.60
2023-03-01T05:20:24.921Z,-0.60
2023-03-01T05:22:53.904Z,-0.60
2023-03-01T05:25:22.409Z,-0.60
2023-03-01T05:27:50.465Z,-0.60
2023-03-01T05:30:19.027Z,-0.60
2023-03-01T05:32:49.106Z,-0.60
2023-03-01T05:35:19.153Z,-0.60
2023-03-01T05:37:50.315Z,-0.60
2023-03-01T05:40:20.164Z,-0.60
2023-03-01T05:42:49.882Z,-0.60
2023-03-01T05:45:19.211Z,-0.60
2023-03-01T05:47:49.278Z,-0.60
2023-03-01T05:50:20.540Z,-0.60
2023-03-01T05:52:51.932Z,-0.60
2023-03-01T05:55:21.584Z,-0.60
2023-03-01T05:57:50.738Z,-0.60
2023-03-01T06:00:20.860Z,-0.70
2023-03-01T06:02:48.720Z,-0.60
2023-03-01T06:05:16.985Z,-0.60
2023-03-01T06:07:45.001Z,-0.60
2023-03-01T06:10:15.606Z,-0.70
2023-03-01T06:12:44.709Z,-0.70
2023-03-01T06:15:13.990Z,-0.60
2023-03-01T06:17:44.328Z,-0.70
2023-03-01T06:20:15.499Z,-0.60
2023-03-01T06:22:43.730Z,-0.60
2023-03-01T06:25:13.454Z,-0.60
2023-03-01T06:27:43.045Z,-0.60
2023-03-01T06:30:13.046Z,-0.60
2023-03-01T06:32:42.910Z,-0.50
2023-03-01T06:35:11.927Z,-0.30
2023-03-01T06:37:40.023Z,0.00
2023-03-01T06:40:12.510Z,0.30
2023-03-01T06:42:43.526Z,0.60
2023-03-01T06:45:12.412Z,0.90
2023-03-01T06:47:40.511Z,1.20
2023-03-01T06:50:09.095Z,1.40
2023-03-01T06:52:37.057Z,1.70
2023-03-01T06:55:05.632Z,2.00
2023-03-01T06:57:33.602Z,2.20
2023-03-01T07:00:02.837Z,2.40
2023-03-01T07:02:30.755Z,2.60
2023-03-01T07:05:03.814Z,2.80
2023-03-01T07:07:31.833Z,3.00
2023-03-01T07:09:59.625Z,3.20
2023-03-01T07:12:27.546Z,3.30
2023-03-01T07:14:55.495Z,3.40
2023-03-01T07:17:24.666Z,3.50
2023-03-01T07:19:52.571Z,3.70
2023-03-01T07:22:20.400Z,3.80
2023-03-01T07:24:48.230Z,3.90
2023-03-01T07:27:16.159Z,4.10
2023-03-01T07:29:44.061Z,4.30
2023-03-01T07:32:12.750Z,4.50
2023-03-01T07:34:41.962Z,4.50
2023-03-01T07:37:10.307Z,4.70
2023-03-01T07:39:38.161Z,5.00
2023-03-01T07:42:05.989Z,5.30
2023-03-01T07:44:33.849Z,5.20
2023-03-01T07:47:01.672Z,5.50
2023-03-01T07:49:29.502Z,5.50
2023-03-01T07:51:58.674Z,5.70
2023-03-01T07:54:27.255Z,5.80
2023-03-01T07:56:55.748Z,5.80
2023-03-01T07:59:24.673Z,5.80
2023-03-01T08:01:52.561Z,5.90
2023-03-01T08:04:20.465Z,5.90
2023-03-01T08:06:48.303Z,5.80
2023-03-01T08:09:17.493Z,6.10
2023-03-01T08:11:45.460Z,6.50
2023-03-01T08:14:13.321Z,6.60
2023-03-01T08:16:41.447Z,6.60
2023-03-01T08:19:10.831Z,6.60
2023-03-01T08:21:39.293Z,6.70
2023-03-01T08:24:08.575Z,6.60
2023-03-01T08:26:38.154Z,6.70
2023-03-01T08:29:06.131Z,6.90
2023-03-01T08:31:37.602Z,7.10
2023-03-01T08:34:09.397Z,7.00
2023-03-01T08:36:39.326Z,7.10
2023-03-01T08:39:07.761Z,7.30
2023-03-01T08:41:37.029Z,7.40
2023-03-01T08:44:05.295Z,7.60
2023-03-01T08:46:35.621Z,7.70
2023-03-01T08:49:06.345Z,7.70
2023-03-01T08:51:37.627Z,7.50
2023-03-01T08:54:06.095Z,7.40
2023-03-01T08:56:34.300Z,7.70
2023-03-01T08:59:03.485Z,7.90
2023-03-01T09:01:31.325Z,7.90
2023-03-01T09:03:59.230Z,7.30
2023-03-01T09:06:27.411Z,7.50
2023-03-01T09:08:55.757Z,7.50
2023-03-01T09:11:24.282Z,7.80
2023-03-01T09:13:52.576Z,7.70
2023-03-01T09:16:23.835Z,7.70
2023-03-01T09:18:52.277Z,7.90
2023-03-01T09:21:37.297Z,7.70
2023-03-01T09:24:08.229Z,7.90
2023-03-01T09:26:36.082Z,8.40
2023-03-01T09:29:04.068Z,8.60
2023-03-01T09:31:33.270Z,8.40
2023-03-01T09:34:01.091Z,7.60
2023-03-01T09:36:29.836Z,7.70
2023-03-01T09:38:59.550Z,7.90
2023-03-01T09:41:43.733Z,8.10
2023-03-01T09:44:20.720Z,8.30
2023-03-01T09:46:50.203Z,8.60
2023-03-01T09:49:21.348Z,8.70
2023-03-01T09:51:57.782Z,8.50
2023-03-01T09:54:25.657Z,8.30
2023-03-01T09:57:06.252Z,8.10
2023-03-01T10:00:01.698Z,8.60
2023-03-01T10:02:40.193Z,9.10
2023-03-01T10:05:33.132Z,9.40
2023-03-01T10:08:21.213Z,9.60
2023-03-01T10:10:50.280Z,9.60
2023-03-01T10:13:21.808Z,9.80
2023-03-01T10:15:55.981Z,10.00
2023-03-01T10:18:28.683Z,10.00
2023-03-01T10:21:00.232Z,10.00
2023-03-01T10:23:30.187Z,9.80
2023-03-01T10:26:08.536Z,9.90
2023-03-01T10:28:48.100Z,10.10
2023-03-01T10:31:20.243Z,10.20
2023-03-01T10:33:54.378Z,10.50
2023-03-01T10:36:22.374Z,10.80
2023-03-01T10:38:53.327Z,10.70
2023-03-01T10:41:21.365Z,10.50
2023-03-01T10:43:51.084Z,10.50
2023-03-01T10:46:25.963Z,10.10
2023-03-01T10:49:20.633Z,10.40
2023-03-01T10:51:50.936Z,10.70
2023-03-01T10:54:21.707Z,10.70
2023-03-01T10:56:51.749Z,10.80
2023-03-01T10:59:27.761Z,10.90
2023-03-01T11:02:25.308Z,10.90
2023-03-01T11:05:03.903Z,11.10
2023-03-01T11:07:31.854Z,11.50
2023-03-01T11:09:59.758Z,11.80
2023-03-01T11:12:30.645Z,12.00
2023-03-01T11:14:59.256Z,11.60
2023-03-01T11:17:31.594Z,11.20
2023-03-01T11:20:15.508Z,11.30
2023-03-01T11:22:49.517Z,11.00
2023-03-01T11:25:19.086Z,10.90
2023-03-01T11:27:48.244Z,11.20
2023-03-01T11:30:23.236Z,10.70
2023-03-01T11:32:58.459Z,11.00
2023-03-01T11:35:30.231Z,11.00
2023-03-01T11:38:05.952Z,11.00
2023-03-01T11:40:37.496Z,11.20
2023-03-01T11:43:16.603Z,11.30
2023-03-01T11:45:56.537Z,11.60
2023-03-01T11:48:49.525Z,11.10
2023-03-01T11:51:25.829Z,11.40
2023-03-01T11:54:04.270Z,11.90
2023-03-01T11:56:37.500Z,12.10
2023-03-01T11:59:26.804Z,12.30
2023-03-01T12:02:20.438Z,12.40
2023-03-01T12:05:15.776Z,12.70
2023-03-01T12:07:53.791Z,12.80
2023-03-01T12:10:28.842Z,13.20
2023-03-01T12:13:21.065Z,12.90
2023-03-01T12:16:02.411Z,13.00
2023-03-01T12:18:54.471Z,13.10
2023-03-01T12:21:32.833Z,13.10
2023-03-01T12:24:39.822Z,12.80
2023-03-01T12:27:25.874Z,12.80
2023-03-01T12:30:01.280Z,12.80
2023-03-01T12:32:42.213Z,12.90
2023-03-01T12:35:34.296Z,12.80
2023-03-01T12:38:14.573Z,12.80
2023-03-01T12:41:10.159Z,12.60
2023-03-01T12:43:53.830Z,12.50
2023-03-01T12:46:30.381Z,12.40
2023-03-01T12:49:06.487Z,12.50
2023-03-01T12:51:36.709Z,12.30
2023-03-01T12:54:13.058Z,12.40
2023-03-01T12:56:42.727Z,12.40
2023-03-01T12:59:17.436Z,12.60
2023-03-01T13:01:53.806Z,12.60
2023-03-01T13:04:42.352Z,12.60
2023-03-01T13:07:21.478Z,12.30
2023-03-01T13:10:02.253Z,11.80
2023-03-01T13:13:02.200Z,12.10
2023-03-01T13:15:37.746Z,12.50
2023-03-01T13:18:27.278Z,12.40
2023-03-01T13:20:59.914Z,12.20
2023-03-01T13:23:31.740Z,12.00
2023-03-01T13:26:12.832Z,12.20
2023-03-01T13:28:48.496Z,12.00
2023-03-01T13:32:02.605Z,11.60
2023-03-01T13:34:50.395Z,11.70
2023-03-01T13:37:30.276Z,11.80
2023-03-01T13:39:59.923Z,11.80
2023-03-01T13:42:38.297Z,11.80
2023-03-01T13:45:25.831Z,11.90
2023-03-01T13:48:00.270Z,11.60
2023-03-01T13:50:30.512Z,11.30
2023-03-01T13:53:01.822Z,11.30
2023-03-01T13:55:38.656Z,11.30
2023-03-01T13:58:18.510Z,11.40
2023-03-01T14:00:47.707Z,11.30
2023-03-01T14:03:18.201Z,11.20
2023-03-01T14:06:12.650Z,11.20
2023-03-01T14:08:42.436Z,11.20
2023-03-01T14:11:46.796Z,11.00
2023-03-01T14:14:33.270Z,10.80
2023-03-01T14:17:26.815Z,10.60
2023-03-01T14:19:58.825Z,10.70
2023-03-01T14:22:29.433Z,10.60
2023-03-01T14:24:59.826Z,10.70
2023-03-01T14:27:31.992Z,10.50
2023-03-01T14:30:02.796Z,10.40
2023-03-01T14:32:33.628Z,10.40
2023-03-01T14:35:02.617Z,10.20
2023-03-01T14:37:33.723Z,10.10
2023-03-01T14:40:03.594Z,10.20
2023-03-01T14:42:36.102Z,9.90
2023-03-01T14:45:05.805Z,10.00
2023-03-01T14:47:39.194Z,9.90
2023-03-01T14:50:10.527Z,9.70
2023-03-01T14:52:40.591Z,9.70
2023-03-01T14:55:17.897Z,9.60
2023-03-01T14:57:46.859Z,9.70
2023-03-01T15:00:21.892Z,9.70
2023-03-01T15:02:53.566Z,9.50
2023-03-01T15:05:27.472Z,9.20
2023-03-01T15:07:56.057Z,9.20
2023-03-01T15:10:26.219Z,9.20
2023-03-01T15:12:54.189Z,9.10
2023-03-01T15:15:37.426Z,8.80
2023-03-01T15:18:16.096Z,8.60
2023-03-01T15:20:44.039Z,8.50
2023-03-01T15:23:24.831Z,8.50
2023-03-01T15:25:57.592Z,8.20
2023-03-01T15:28:28.474Z,8.20
2023-03-01T15:30:59.808Z,8.10
2023-03-01T15:33:37.983Z,8.00
2023-03-01T15:36:34.851Z,7.80
2023-03-01T15:39:03.844Z,7.70
2023-03-01T15:41:33.339Z,7.70
2023-03-01T15:44:02.616Z,7.60
2023-03-01T15:46:35.280Z,7.60
2023-03-01T15:49:06.274Z,7.60
2023-03-01T15:51:38.337Z,7.40
2023-03-01T15:54:09.032Z,7.30
2023-03-01T15:56:36.892Z,7.20
2023-03-01T15:59:05.717Z,7.20
2023-03-01T16:01:35.241Z,7.10
2023-03-01T16:04:03.340Z,7.00
2023-03-01T16:06:32.455Z,7.00
2023-03-01T16:09:01.833Z,6.90
2023-03-01T16:11:29.790Z,6.80
2023-03-01T16:13:57.671Z,6.70
2023-03-01T16:16:25.568Z,6.70
2023-03-01T16:18:55.469Z,6.60
2023-03-01T16:21:25.249Z,6.60
2023-03-01T16:23:54.068Z,6.50
2023-03-01T16:26:23.301Z,6.50
2023-03-01T16:28:51.127Z,6.40
2023-03-01T16:31:22.759Z,6.30
2023-03-01T16:33:52.430Z,6.30
2023-03-01T16:36:21.893Z,6.20
2023-03-01T16:38:50.239Z,6.00
2023-03-01T16:41:20.144Z,6.00
2023-03-01T16:43:49.337Z,5.90
2023-03-01T16:46:19.088Z,5.80
2023-03-01T16:48:48.067Z,5.70
2023-03-01T16:51:16.518Z,5.60
2023-03-01T16:53:47.104Z,5.50
2023-03-01T16:56:16.183Z,5.50
2023-03-01T16:58:44.447Z,5.40
2023-03-01T17:01:16.693Z,5.30
2023-03-01T17:03:45.131Z,5.30
2023-03-01T17:06:16.216Z,5.20
2023-03-01T17:08:44.145Z,5.10
2023-03-01T17:11:14.034Z,5.00
2023-03-01T17:13:42.378Z,5.00
2023-03-01T17:16:12.281Z,4.90
2023-03-01T17:18:41.494Z,4.80
2023-03-01T17:21:10.246Z,4.70
2023-03-01T17:23:39.543Z,4.70
2023-03-01T17:26:08.108Z,4.60
2023-03-01T17:28:38.012Z,4.50
2023-03-01T17:31:08.206Z,4.50
2023-03-01T17:33:36.449Z,4.40
2023-03-01T17:36:06.405Z,4.40
2023-03-01T17:38:34.345Z,4.40
2023-03-01T17:41:02.575Z,4.30
2023-03-01T17:43:30.750Z,4.30
2023-03-01T17:45:58.890Z,4.20
2023-03-01T17:48:26.804Z,4.20
2023-03-01T17:50:55.901Z,4.10
2023-03-01T17:53:25.082Z,4.10
2023-03-01T17:56:01.581Z,4.00
2023-03-01T17:58:30.315Z,3.90
2023-03-01T18:01:10.537Z,3.90
2023-03-01T18:03:38.349Z,3.80
2023-03-01T18:06:12.930Z,3.80
2023-03-01T18:08:42.487Z,3.70
2023-03-01T18:11:10.351Z,3.70
2023-03-01T18:13:39.853Z,3.70
2023-03-01T18:16:08.574Z,3.60
2023-03-01T18:18:36.775Z,3.60
2023-03-01T18:21:05.360Z,3.60
2023-03-01T18:23:35.281Z,3.50
2023-03-01T18:26:07.684Z,3.50
2023-03-01T18:28:36.053Z,3.50
2023-03-01T18:31:08.501Z,3.40
2023-03-01T18:33:36.700Z,3.40
2023-03-01T18:36:04.808Z,3.30
2023-03-01T18:38:33.189Z,3.30
2023-03-01T18:41:00.993Z,3.30
2023-03-01T18:43:32.761Z,3.20
2023-03-01T18:46:01.488Z,3.20
2023-03-01T18:48:30.027Z,3.10
2023-03-01T18:50:58.050Z,3.10
2023-03-01T18:53:25.946Z,3.00
2023-03-01T18:55:53.807Z,2.90
2023-03-01T18:58:21.627Z,2.90
2023-03-01T19:00:50.806Z,2.90
2023-03-01T19:03:18.622Z,2.90
2023-03-01T19:05:46.590Z,2.80
2023-03-01T19:08:14.421Z,2.80
2023-03-01T19:10:42.265Z,2.80
2023-03-01T19:13:10.301Z,2.70
2023-03-01T19:15:38.226Z,2.70
2023-03-01T19:18:07.502Z,2.70
2023-03-01T19:20:35.414Z,2.60
2023-03-01T19:23:03.272Z,2.50
2023-03-01T19:25:31.120Z,2.50
2023-03-01T19:27:59.240Z,2.50
2023-03-01T19:30:27.250Z,2.50
2023-03-01T19:32:55.320Z,2.40
2023-03-01T19:35:24.560Z,2.40
2023-03-01T19:37:52.386Z,2.40
2023-03-01T19:40:20.326Z,2.40
2023-03-01T19:42:48.156Z,2.40
2023-03-01T19:45:18.050Z,2.40
2023-03-01T19:47:48.966Z,2.40
2023-03-01T19:50:17.947Z,2.30
2023-03-01T19:52:47.111Z,2.30
2023-03-01T19:55:14.979Z,2.30
2023-03-01T19:57:42.805Z,2.30
2023-03-01T20:00:11.915Z,2.30
2023-03-01T20:02:39.888Z,2.30
2023-03-01T20:05:08.154Z,2.30
2023-03-01T20:07:36.067Z,2.30
2023-03-01T20:10:05.784Z,2.30
2023-03-01T20:12:33.608Z,2.30
2023-03-01T20:15:01.409Z,2.30
2023-03-01T20:17:29.256Z,2.30
2023-03-01T20:19:57.079Z,2.30
2023-03-01T20:22:25.037Z,2.20
2023-03-01T20:24:52.952Z,2.20
2023-03-01T20:27:22.326Z,2.20
2023-03-01T20:29:50.180Z,2.20
2023-03-01T20:32:18.109Z,2.10
2023-03-01T20:34:46.071Z,2.10
2023-03-01T20:37:13.908Z,2.10
2023-03-01T20:39:41.754Z,2.10
2023-03-01T20:42:09.585Z,2.10
2023-03-01T20:44:43.009Z,2.00
2023-03-01T20:47:11.105Z,2.00
2023-03-01T20:49:38.973Z,2.00
2023-03-01T20:52:07.550Z,1.90
2023-03-01T20:54:35.414Z,1.90
2023-03-01T20:57:03.246Z,1.80
2023-03-01T20:59:31.115Z,1.80
2023-03-01T21:02:00.341Z,1.80
2023-03-01T21:04:28.198Z,1.70
2023-03-01T21:06:56.015Z,1.70
2023-03-01T21:09:23.844Z,1.70
2023-03-01T21:11:51.851Z,1.70
2023-03-01T21:14:21.465Z,1.60
2023-03-01T21:16:49.564Z,1.60
2023-03-01T21:19:18.839Z,1.60
2023-03-01T21:21:46.734Z,1.60
2023-03-01T21:24:14.556Z,1.50
2023-03-01T21:26:42.383Z,1.50
2023-03-01T21:29:10.229Z,1.50
2023-03-01T21:31:38.228Z,1.50
2023-03-01T21:34:07.303Z,1.50
2023-03-01T21:36:37.120Z,1.50
2023-03-01T21:39:06.582Z,1.40
2023-03-01T21:41:36.405Z,1.50
2023-03-01T21:44:06.694Z,1.40
2023-03-01T21:46:37.439Z,1.40
2023-03-01T21:49:06.043Z,1.40
2023-03-01T21:51:36.500Z,1.40
2023-03-01T21:54:05.557Z,1.40
2023-03-01T21:56:38.574Z,1.40
2023-03-01T21:59:07.780Z,1.40
2023-03-01T22:01:35.820Z,1.40
2023-03-01T22:04:04.215Z,1.30
2023-03-01T22:06:35.081Z,1.30
2023-03-01T22:09:07.583Z,1.40
2023-03-01T22:11:37.869Z,1.40
2023-03-01T22:14:05.886Z,1.40
2023-03-01T22:16:36.562Z,1.40
2023-03-01T22:19:05.488Z,1.40
2023-03-01T22:21:33.893Z,1.40
2023-03-01T22:24:02.184Z,1.40
2023-03-01T22:26:33.869Z,1.40
2023-03-01T22:29:03.847Z,1.40
2023-03-01T22:31:31.772Z,1.40
2023-03-01T22:34:00.172Z,1.40
2023-03-01T22:36:28.652Z,1.40
2023-03-01T22:39:00.229Z,1.40
2023-03-01T22:41:29.478Z,1.40
2023-03-01T22:43:58.691Z,1.30
2023-03-01T22:46:27.504Z,1.30
2023-03-01T22:48:56.145Z,1.40
2023-03-01T22:51:25.986Z,1.40
2023-03-01T22:53:54.752Z,1.40
2023-03-01T22:56:24.513Z,1.40
2023-03-01T22:58:52.570Z,1.40
2023-03-01T23:01:23.779Z,1.40
2023-03-01T23:03:52.200Z,1.40
2023-03-01T23:06:21.738Z,1.30
2023-03-01T23:08:51.548Z,1.40
2023-03-01T23:11:20.971Z,1.30
2023-03-01T23:13:49.660Z,1.30
2023-03-01T23:16:18.437Z,1.30
2023-03-01T23:18:47.727Z,1.30
2023-03-01T23:21:17.148Z,1.30
2023-03-01T23:23:46.458Z,1.30
2023-03-01T23:26:14.736Z,1.30
2023-03-01T23:28:42.866Z,1.30
2023-03-01T23:31:13.691Z,1.30
2023-03-01T23:33:44.392Z,1.30
2023-03-01T23:36:21.525Z,1.30
2023-03-01T23:38:50.964Z,1.30
2023-03-01T23:41:21.397Z,1.30
2023-03-01T23:43:50.934Z,1.30
2023-03-01T23:46:21.577Z,1.30
2023-03-01T23:48:49.960Z,1.40
2023-03-01T23:51:19.732Z,1.30
2023-03-01T23:53:55.018Z,1.40
2023-03-01T23:56:26.703Z,1.30
2023-03-01T23:58:55.317Z,1.30
